Time;durP1;ratioP1;P1;durP2;ratioP2;P2;SDS_P1;SDS_P2;PMS_P1;PMS_P2;Temp;Humidity;BMP_temperature;BMP_pressure;BME280_temperature;BME280_humidity;BME280_pressure;Samples;Min_cycle;Max_cycle;Signal;HPM_P1;HPM_P2
2022/08/02 00:00:38;;;;;;;3.80;1.50;;;;;;;;;;5088174;28;20233;-17
2022/08/02 00:03:05;;;;;;;3.60;1.55;;;;;;;;;;5092527;28;20335;-17
2022/08/02 00:05:33;;;;;;;2.65;1.50;;;;;;;;;;5092398;28;20243;-17
2022/08/02 00:08:00;;;;;;;3.88;1.70;;;;;;;;;;5081140;28;21049;-17
2022/08/02 00:10:29;;;;;;;3.28;1.30;;;;;;;;;;5092427;28;20239;-17
2022/08/02 00:12:57;;;;;;;3.88;1.50;;;;;;;;;;5088251;28;20298;-17
2022/08/02 00:15:24;;;;;;;5.25;1.50;;;;;;;;;;5079562;28;20222;-17
2022/08/02 00:17:51;;;;;;;3.17;1.60;;;;;;;;;;5083178;28;20238;-17
2022/08/02 00:20:19;;;;;;;2.53;1.83;;;;;;;;;;5092245;28;20695;-17
2022/08/02 00:22:46;;;;;;;4.07;1.25;;;;;;;;;;5091495;28;20627;-17
2022/08/02 00:25:13;;;;;;;2.58;1.60;;;;;;;;;;5092094;28;20730;-17
2022/08/02 00:27:42;;;;;;;1.65;1.13;;;;;;;;;;5092192;28;20990;-17
2022/08/02 00:30:11;;;;;;;1.73;1.15;;;;;;;;;;5079053;28;20308;-17
2022/08/02 00:32:38;;;;;;;2.35;1.10;;;;;;;;;;5083743;28;21000;-17
2022/08/02 00:35:06;;;;;;;2.35;1.02;;;;;;;;;;5091663;28;20243;-17
2022/08/02 00:37:38;;;;;;;4.28;1.20;;;;;;;;;;5091820;28;20235;-17
2022/08/02 00:40:06;;;;;;;1.85;1.17;;;;;;;;;;5082521;28;20708;-17
2022/08/02 00:42:33;;;;;;;2.83;1.55;;;;;;;;;;5088117;28;20989;-17
2022/08/02 00:45:02;;;;;;;2.55;0.90;;;;;;;;;;5075603;28;20229;-17
2022/08/02 00:47:29;;;;;;;1.63;1.15;;;;;;;;;;5074440;28;20303;-17
2022/08/02 00:49:57;;;;;;;1.98;1.17;;;;;;;;;;5091565;28;20790;-17
2022/08/02 00:52:24;;;;;;;2.33;1.13;;;;;;;;;;5089085;28;20251;-17
2022/08/02 00:54:51;;;;;;;1.55;1.02;;;;;;;;;;5091625;28;20244;-17
2022/08/02 00:57:19;;;;;;;3.30;1.25;;;;;;;;;;5091483;28;20359;-17
2022/08/02 00:59:46;;;;;;;1.92;1.42;;;;;;;;;;5091793;28;20331;-17
2022/08/02 01:02:15;;;;;;;2.63;1.20;;;;;;;;;;5077107;28;20232;-17
2022/08/02 01:04:43;;;;;;;3.00;1.25;;;;;;;;;;5077498;28;20243;-17
2022/08/02 01:07:10;;;;;;;1.85;1.17;;;;;;;;;;5091072;28;20707;-17
2022/08/02 01:09:40;;;;;;;1.83;1.10;;;;;;;;;;5091318;28;20948;-17
2022/08/02 01:12:08;;;;;;;2.03;1.10;;;;;;;;;;5079949;28;20252;-17
2022/08/02 01:14:36;;;;;;;3.05;1.27;;;;;;;;;;5084642;28;20237;-17
2022/08/02 01:17:05;;;;;;;4.88;1.40;;;;;;;;;;5080905;28;20244;-17
2022/08/02 01:19:39;;;;;;;2.00;1.00;;;;;;;;;;5091736;28;20229;-17
2022/08/02 01:22:16;;;;;;;2.92;1.20;;;;;;;;;;5090610;28;20850;-17
2022/08/02 01:24:49;;;;;;;1.20;0.85;;;;;;;;;;5079481;28;20237;-17
2022/08/02 01:27:20;;;;;;;3.63;1.27;;;;;;;;;;5090881;28;20229;-17
2022/08/02 01:29:51;;;;;;;1.90;1.05;;;;;;;;;;5077018;28;20229;-17
2022/08/02 01:32:19;;;;;;;1.67;0.90;;;;;;;;;;5078583;28;20236;-17
2022/08/02 01:34:46;;;;;;;1.45;0.90;;;;;;;;;;5077009;28;20242;-17
2022/08/02 01:37:16;;;;;;;1.40;1.08;;;;;;;;;;5070596;28;20236;-17
2022/08/02 01:39:43;;;;;;;1.63;0.90;;;;;;;;;;5074284;28;20233;-17
2022/08/02 01:42:10;;;;;;;3.20;1.00;;;;;;;;;;5072377;28;20241;-17
2022/08/02 01:44:40;;;;;;;2.28;1.20;;;;;;;;;;5090921;28;20232;-17
2022/08/02 01:47:09;;;;;;;2.20;1.00;;;;;;;;;;5091967;28;20228;-17
2022/08/02 01:49:36;;;;;;;1.30;0.93;;;;;;;;;;5094559;28;20225;-17
2022/08/02 01:52:23;;;;;;;1.98;0.90;;;;;;;;;;5085799;28;20715;-17
2022/08/02 01:54:53;;;;;;;1.88;0.93;;;;;;;;;;5094308;28;20290;-17
2022/08/02 01:57:21;;;;;;;2.13;1.05;;;;;;;;;;5094108;28;20319;-17
2022/08/02 01:59:48;;;;;;;2.78;0.90;;;;;;;;;;5086551;28;20229;-17
2022/08/02 02:02:17;;;;;;;3.15;0.95;;;;;;;;;;5085917;28;20233;-17
2022/08/02 02:04:46;;;;;;;1.77;1.15;;;;;;;;;;5067229;28;20298;-17
2022/08/02 02:07:14;;;;;;;1.92;0.73;;;;;;;;;;5080881;28;20607;-17
2022/08/02 02:09:41;;;;;;;1.05;0.88;;;;;;;;;;5092668;28;20225;-17
2022/08/02 02:12:17;;;;;;;3.22;1.10;;;;;;;;;;5093980;28;20331;-17
2022/08/02 02:14:45;;;;;;;2.08;0.90;;;;;;;;;;5084101;28;20232;-17
2022/08/02 02:17:19;;;;;;;1.92;1.08;;;;;;;;;;5086956;28;20235;-17
2022/08/02 02:20:07;;;;;;;3.85;1.20;;;;;;;;;;5094436;28;20248;-17
2022/08/02 02:22:35;;;;;;;1.35;1.00;;;;;;;;;;5088816;22;20242;-15
2022/08/02 02:25:03;;;;;;;1.05;0.80;;;;;;;;;;5071240;28;20299;-15
2022/08/02 02:27:32;;;;;;;2.92;1.27;;;;;;;;;;5074624;28;20233;-16
2022/08/02 02:30:03;;;;;;;1.52;0.82;;;;;;;;;;5074465;28;20685;-16
2022/08/02 02:32:32;;;;;;;2.92;1.08;;;;;;;;;;5070490;28;20244;-16
2022/08/02 02:34:59;;;;;;;2.03;0.82;;;;;;;;;;5073411;28;20229;-15
2022/08/02 02:37:27;;;;;;;1.27;0.77;;;;;;;;;;5072321;28;20308;-15
2022/08/02 02:39:55;;;;;;;2.08;1.00;;;;;;;;;;5066350;28;20234;-16
2022/08/02 02:42:23;;;;;;;1.38;0.75;;;;;;;;;;5074006;28;20252;-15
2022/08/02 02:44:51;;;;;;;1.80;0.85;;;;;;;;;;5073549;28;20233;-15
2022/08/02 02:47:18;;;;;;;1.05;0.80;;;;;;;;;;5071859;28;20229;-15
2022/08/02 02:49:47;;;;;;;2.33;0.88;;;;;;;;;;5072725;28;20226;-15
2022/08/02 02:52:15;;;;;;;0.73;0.70;;;;;;;;;;5053023;28;20233;-15
2022/08/02 02:54:43;;;;;;;2.15;0.88;;;;;;;;;;5052971;28;20331;-15
2022/08/02 02:57:10;;;;;;;1.92;0.82;;;;;;;;;;5069927;28;20264;-15
2022/08/02 02:59:38;;;;;;;4.30;1.00;;;;;;;;;;5073304;28;20324;-15
2022/08/02 03:02:16;;;;;;;1.85;0.73;;;;;;;;;;5071386;28;20233;-15
2022/08/02 03:04:43;;;;;;;0.98;0.77;;;;;;;;;;5073731;28;20233;-15
2022/08/02 03:07:25;;;;;;;1.85;0.93;;;;;;;;;;5060341;28;20984;-15
2022/08/02 03:09:52;;;;;;;1.70;0.93;;;;;;;;;;5072231;28;20256;-15
2022/08/02 03:12:22;;;;;;;2.15;0.80;;;;;;;;;;5072416;28;20317;-16
2022/08/02 03:14:57;;;;;;;2.58;0.77;;;;;;;;;;5073033;28;20915;-15
2022/08/02 03:17:25;;;;;;;1.90;0.90;;;;;;;;;;5072929;28;20225;-15
2022/08/02 03:19:52;;;;;;;1.50;0.88;;;;;;;;;;5071649;28;20229;-15
2022/08/02 03:22:19;;;;;;;2.15;1.00;;;;;;;;;;5063075;28;20252;-15
2022/08/02 03:24:48;;;;;;;2.17;0.98;;;;;;;;;;5067081;28;20697;-15
2022/08/02 03:27:16;;;;;;;1.95;0.73;;;;;;;;;;5065120;28;20229;-15
2022/08/02 03:29:43;;;;;;;1.50;1.00;;;;;;;;;;5060771;28;20232;-15
2022/08/02 03:32:10;;;;;;;3.47;1.00;;;;;;;;;;5055858;28;20233;-15
2022/08/02 03:34:38;;;;;;;2.17;1.00;;;;;;;;;;5062512;28;20233;-15
2022/08/02 03:37:05;;;;;;;1.55;0.82;;;;;;;;;;5051881;28;20765;-15
2022/08/02 03:39:33;;;;;;;1.83;0.90;;;;;;;;;;5060802;28;20328;-15
2022/08/02 03:42:02;;;;;;;1.13;0.70;;;;;;;;;;5064209;28;20230;-15
2022/08/02 03:44:29;;;;;;;2.25;1.00;;;;;;;;;;5059182;28;20226;-15
2022/08/02 03:46:56;;;;;;;2.33;0.90;;;;;;;;;;5057121;28;20265;-15
2022/08/02 03:49:24;;;;;;;2.00;0.77;;;;;;;;;;5071811;28;20611;-15
2022/08/02 03:51:51;;;;;;;2.65;0.90;;;;;;;;;;5060884;28;20280;-15
2022/08/02 03:54:19;;;;;;;2.13;1.08;;;;;;;;;;5050945;28;20237;-15
2022/08/02 03:56:46;;;;;;;2.72;1.23;;;;;;;;;;5051965;28;20226;-15
2022/08/02 03:59:15;;;;;;;1.95;0.88;;;;;;;;;;5066584;28;20347;-15
2022/08/02 04:01:42;;;;;;;1.05;0.70;;;;;;;;;;5059602;28;20229;-15
2022/08/02 04:04:10;;;;;;;1.48;1.00;;;;;;;;;;5057408;28;20226;-15
2022/08/02 04:06:37;;;;;;;1.98;1.10;;;;;;;;;;5065462;28;20236;-15
2022/08/02 04:09:08;;;;;;;1.92;1.00;;;;;;;;;;5057110;28;20238;-15
2022/08/02 04:11:36;;;;;;;2.10;0.70;;;;;;;;;;5051806;28;21073;-15
2022/08/02 04:14:04;;;;;;;2.42;1.20;;;;;;;;;;5052053;28;20321;-15
2022/08/02 04:16:37;;;;;;;1.52;1.00;;;;;;;;;;5051162;28;20245;-15
2022/08/02 04:19:05;;;;;;;2.78;1.25;;;;;;;;;;5063398;28;20236;-15
2022/08/02 04:21:32;;;;;;;3.83;1.10;;;;;;;;;;5068056;28;20250;-15
2022/08/02 04:24:18;;;;;;;2.45;1.13;;;;;;;;;;5056196;28;20225;-15
2022/08/02 04:26:46;;;;;;;1.60;0.90;;;;;;;;;;5056781;28;21076;-15
2022/08/02 04:29:16;;;;;;;1.85;1.10;;;;;;;;;;5071996;28;20233;-15
2022/08/02 04:31:44;;;;;;;2.65;0.90;;;;;;;;;;5055586;28;20222;-16
2022/08/02 04:34:12;;;;;;;2.75;1.20;;;;;;;;;;5060366;28;20240;-15
2022/08/02 04:36:41;;;;;;;3.17;1.20;;;;;;;;;;5065687;28;20238;-15
2022/08/02 04:39:09;;;;;;;2.45;1.08;;;;;;;;;;5051517;28;20329;-15
2022/08/02 04:41:37;;;;;;;2.75;1.13;;;;;;;;;;5051985;28;21014;-15
2022/08/02 04:44:10;;;;;;;2.97;0.98;;;;;;;;;;5044593;28;20240;-15
2022/08/02 04:46:37;;;;;;;2.67;0.77;;;;;;;;;;5058548;28;20250;-15
2022/08/02 04:49:06;;;;;;;1.95;0.90;;;;;;;;;;5053703;28;20313;-15
2022/08/02 04:51:34;;;;;;;1.65;1.00;;;;;;;;;;5062171;28;20233;-15
2022/08/02 04:54:05;;;;;;;2.97;1.02;;;;;;;;;;5067868;28;20254;-15
2022/08/02 04:56:36;;;;;;;2.47;1.20;;;;;;;;;;5062380;28;20638;-15
2022/08/02 04:59:04;;;;;;;2.05;0.98;;;;;;;;;;5063215;28;20238;-15
2022/08/02 05:01:32;;;;;;;1.85;1.20;;;;;;;;;;5060971;28;20245;-15
2022/08/02 05:03:59;;;;;;;2.10;1.02;;;;;;;;;;5057078;28;20226;-15
2022/08/02 05:06:28;;;;;;;3.38;1.30;;;;;;;;;;5068200;28;20333;-19
2022/08/02 05:08:55;;;;;;;1.55;1.02;;;;;;;;;;5058135;28;20237;-16
2022/08/02 05:11:23;;;;;;;1.48;1.02;;;;;;;;;;5051619;28;20226;-15
2022/08/02 05:14:03;;;;;;;4.30;1.20;;;;;;;;;;5065449;28;20236;-15
2022/08/02 05:16:30;;;;;;;1.70;0.90;;;;;;;;;;5057196;28;20239;-15
2022/08/02 05:18:58;;;;;;;1.73;1.17;;;;;;;;;;5071344;28;20249;-15
2022/08/02 05:21:27;;;;;;;2.53;1.25;;;;;;;;;;5062981;28;20237;-15
2022/08/02 05:23:54;;;;;;;5.07;1.10;;;;;;;;;;5071280;28;20780;-15
2022/08/02 05:26:22;;;;;;;1.42;1.08;;;;;;;;;;5056769;28;20719;-15
2022/08/02 05:28:49;;;;;;;2.13;1.20;;;;;;;;;;5070816;28;20738;-15
2022/08/02 05:31:16;;;;;;;4.57;1.17;;;;;;;;;;5060294;28;20701;-15
2022/08/02 05:33:44;;;;;;;2.30;1.00;;;;;;;;;;5064974;28;20234;-15
2022/08/02 05:36:11;;;;;;;2.08;0.90;;;;;;;;;;5061117;28;20337;-15
2022/08/02 05:38:40;;;;;;;3.75;1.42;;;;;;;;;;5068187;28;20229;-15
2022/08/02 05:41:08;;;;;;;1.63;1.13;;;;;;;;;;5060801;28;20702;-15
2022/08/02 05:43:35;;;;;;;1.83;1.15;;;;;;;;;;5055294;28;20230;-15
2022/08/02 05:46:03;;;;;;;4.25;1.10;;;;;;;;;;5070745;28;20236;-15
2022/08/02 05:48:30;;;;;;;2.35;1.00;;;;;;;;;;5056741;28;20924;-15
2022/08/02 05:51:02;;;;;;;2.13;1.05;;;;;;;;;;5070564;28;20226;-15
2022/08/02 05:53:32;;;;;;;1.52;1.00;;;;;;;;;;5056660;28;20235;-15
2022/08/02 05:56:03;;;;;;;2.20;1.10;;;;;;;;;;5036404;28;20332;-15
2022/08/02 05:58:36;;;;;;;3.45;1.40;;;;;;;;;;5064156;28;20667;-15
2022/08/02 06:01:03;;;;;;;1.70;1.20;;;;;;;;;;5056279;28;20232;-15
2022/08/02 06:03:31;;;;;;;1.48;1.08;;;;;;;;;;5070683;28;20593;-15
2022/08/02 06:05:59;;;;;;;2.25;1.13;;;;;;;;;;5053693;28;20336;-15
2022/08/02 06:08:29;;;;;;;1.80;1.20;;;;;;;;;;5050277;28;20632;-15
2022/08/02 06:10:56;;;;;;;2.47;1.30;;;;;;;;;;5050274;28;20245;-15
2022/08/02 06:13:25;;;;;;;3.70;1.75;;;;;;;;;;5050737;28;20238;-15
2022/08/02 06:15:54;;;;;;;3.15;1.50;;;;;;;;;;5059617;28;20245;-15
2022/08/02 06:18:22;;;;;;;1.70;1.00;;;;;;;;;;5070646;28;20221;-15
2022/08/02 06:20:55;;;;;;;2.45;1.30;;;;;;;;;;5056451;28;20624;-15
2022/08/02 06:23:23;;;;;;;4.82;1.50;;;;;;;;;;5062857;28;20226;-15
2022/08/02 06:25:50;;;;;;;2.35;1.27;;;;;;;;;;5063893;28;20229;-15
2022/08/02 06:28:18;;;;;;;2.00;1.27;;;;;;;;;;5055397;28;20229;-15
2022/08/02 06:30:46;;;;;;;5.15;1.80;;;;;;;;;;5063800;28;20700;-15
2022/08/02 06:33:14;;;;;;;5.00;1.50;;;;;;;;;;5052934;28;20237;-15
2022/08/02 06:35:43;;;;;;;2.38;1.38;;;;;;;;;;5053423;28;20230;-15
2022/08/02 06:38:13;;;;;;;4.35;1.52;;;;;;;;;;5056884;28;20226;-15
2022/08/02 06:40:41;;;;;;;3.25;1.58;;;;;;;;;;5053550;28;20241;-15
2022/08/02 06:43:11;;;;;;;2.30;1.48;;;;;;;;;;5065802;28;20810;-15
2022/08/02 06:45:39;;;;;;;5.28;1.70;;;;;;;;;;5073242;28;20233;-15
2022/08/02 06:48:07;;;;;;;3.25;1.63;;;;;;;;;;5073524;28;20229;-15
2022/08/02 06:50:37;;;;;;;2.50;1.70;;;;;;;;;;5067485;28;20698;-15
2022/08/02 06:53:04;;;;;;;4.57;2.00;;;;;;;;;;5063380;28;20230;-15
2022/08/02 06:55:32;;;;;;;8.55;2.10;;;;;;;;;;5056204;28;20325;-15
2022/08/02 06:58:10;;;;;;;2.20;1.35;;;;;;;;;;5062869;28;20237;-15
2022/08/02 07:00:37;;;;;;;4.28;1.77;;;;;;;;;;5058513;28;20325;-15
2022/08/02 07:03:05;;;;;;;2.90;1.60;;;;;;;;;;5073113;28;20992;-15
2022/08/02 07:05:34;;;;;;;3.47;1.80;;;;;;;;;;5073020;28;20763;-15
2022/08/02 07:08:01;;;;;;;3.28;1.73;;;;;;;;;;5052558;28;20230;-15
2022/08/02 07:10:28;;;;;;;3.22;1.60;;;;;;;;;;5062564;28;20317;-15
2022/08/02 07:12:56;;;;;;;2.33;1.60;;;;;;;;;;5052993;28;20325;-15
2022/08/02 07:15:26;;;;;;;3.03;1.50;;;;;;;;;;5062113;28;20257;-15
2022/08/02 07:17:53;;;;;;;4.47;2.10;;;;;;;;;;5066733;28;20234;-15
2022/08/02 07:20:21;;;;;;;2.25;1.65;;;;;;;;;;5052042;28;20234;-15
2022/08/02 07:22:50;;;;;;;3.40;1.77;;;;;;;;;;5053716;28;20234;-15
2022/08/02 07:25:17;;;;;;;4.75;1.80;;;;;;;;;;5062160;28;20313;-15
2022/08/02 07:27:44;;;;;;;2.53;1.92;;;;;;;;;;5057387;28;20238;-15
2022/08/02 07:30:12;;;;;;;2.05;1.60;;;;;;;;;;5055289;28;20225;-15
2022/08/02 07:32:39;;;;;;;3.38;1.52;;;;;;;;;;5057813;28;20257;-15
2022/08/02 07:35:07;;;;;;;2.80;1.95;;;;;;;;;;5054533;28;20234;-15
2022/08/02 07:37:38;;;;;;;5.22;2.20;;;;;;;;;;5055327;28;20250;-15
2022/08/02 07:40:25;;;;;;;3.67;1.95;;;;;;;;;;5070304;28;20229;-15
2022/08/02 07:42:53;;;;;;;6.13;2.28;;;;;;;;;;5071904;28;20230;-15
2022/08/02 07:45:29;;;;;;;7.00;2.58;;;;;;;;;;5065377;28;20673;-15
2022/08/02 07:47:57;;;;;;;6.32;2.55;;;;;;;;;;5052630;28;20234;-15
2022/08/02 07:50:24;;;;;;;3.90;2.00;;;;;;;;;;5068507;28;20730;-15
2022/08/02 07:52:51;;;;;;;6.10;2.42;;;;;;;;;;5064332;28;20230;-15
2022/08/02 07:55:24;;;;;;;4.00;1.85;;;;;;;;;;5066347;28;20252;-15
2022/08/02 07:58:07;;;;;;;3.13;1.83;;;;;;;;;;5062809;28;20238;-15
2022/08/02 08:00:39;;;;;;;4.22;2.05;;;;;;;;;;5066096;28;20230;-15
2022/08/02 08:03:07;;;;;;;3.83;1.90;;;;;;;;;;5072536;28;20241;-15
2022/08/02 08:05:35;;;;;;;3.05;1.80;;;;;;;;;;5067407;28;20222;-15
2022/08/02 08:08:02;;;;;;;3.92;2.10;;;;;;;;;;5059436;28;20779;-15
2022/08/02 08:10:29;;;;;;;7.70;2.15;;;;;;;;;;5058469;28;20723;-15
2022/08/02 08:12:57;;;;;;;3.88;2.00;;;;;;;;;;5071560;28;20229;-15
2022/08/02 08:15:25;;;;;;;2.38;1.80;;;;;;;;;;5060191;28;20234;-15
2022/08/02 08:17:53;;;;;;;3.70;2.03;;;;;;;;;;5050724;28;20244;-15
2022/08/02 08:20:20;;;;;;;6.30;2.05;;;;;;;;;;5062220;28;20236;-15
2022/08/02 08:22:48;;;;;;;4.97;1.90;;;;;;;;;;5054294;28;20377;-15
2022/08/02 08:25:16;;;;;;;4.13;2.17;;;;;;;;;;5060774;28;20229;-15
2022/08/02 08:27:47;;;;;;;3.65;1.60;;;;;;;;;;5066869;28;20230;-15
2022/08/02 08:30:15;;;;;;;3.17;1.98;;;;;;;;;;5070502;28;21053;-15
2022/08/02 08:32:43;;;;;;;6.07;1.98;;;;;;;;;;5051842;28;20693;-15
2022/08/02 08:35:11;;;;;;;3.65;1.90;;;;;;;;;;5051099;28;20226;-15
2022/08/02 08:37:38;;;;;;;4.03;2.00;;;;;;;;;;5059939;28;20229;-15
2022/08/02 08:40:08;;;;;;;5.65;2.30;;;;;;;;;;5069977;28;20263;-15
2022/08/02 08:42:36;;;;;;;5.10;2.10;;;;;;;;;;5064229;28;20230;-15
2022/08/02 08:45:03;;;;;;;5.15;2.35;;;;;;;;;;5065628;28;20312;-15
2022/08/02 08:47:33;;;;;;;5.18;2.40;;;;;;;;;;5043896;28;20229;-15
2022/08/02 08:50:03;;;;;;;5.00;2.33;;;;;;;;;;5058167;28;20329;-15
2022/08/02 08:52:31;;;;;;;5.85;2.50;;;;;;;;;;5056725;28;20229;-15
2022/08/02 08:54:58;;;;;;;4.38;2.38;;;;;;;;;;5060172;28;20234;-15
2022/08/02 08:57:27;;;;;;;6.50;2.67;;;;;;;;;;5069109;28;20244;-15
2022/08/02 08:59:55;;;;;;;6.55;2.67;;;;;;;;;;5070955;28;21067;-15
2022/08/02 09:02:22;;;;;;;4.63;2.40;;;;;;;;;;5067787;28;20229;-15
2022/08/02 09:04:54;;;;;;;4.50;2.47;;;;;;;;;;5071287;28;20257;-15
2022/08/02 09:07:23;;;;;;;6.25;3.05;;;;;;;;;;5054312;28;20529;-15
2022/08/02 09:09:51;;;;;;;4.53;2.50;;;;;;;;;;5059122;28;20260;-15
2022/08/02 09:12:21;;;;;;;5.97;2.40;;;;;;;;;;5056594;28;20229;-15
2022/08/02 09:14:48;;;;;;;3.85;2.30;;;;;;;;;;5071368;28;20696;-15
2022/08/02 09:17:16;;;;;;;4.43;2.22;;;;;;;;;;5053240;28;20238;-15
2022/08/02 09:19:44;;;;;;;3.47;2.20;;;;;;;;;;5056304;28;20328;-15
2022/08/02 09:22:12;;;;;;;4.55;2.30;;;;;;;;;;5069342;28;20325;-15
2022/08/02 09:24:44;;;;;;;5.60;2.80;;;;;;;;;;5068777;28;20230;-15
2022/08/02 09:27:12;;;;;;;4.47;2.78;;;;;;;;;;5060282;28;20244;-16
2022/08/02 09:29:39;;;;;;;5.50;2.47;;;;;;;;;;5054756;28;20230;-15
2022/08/02 09:32:28;;;;;;;5.97;2.92;;;;;;;;;;5050658;28;20233;-15
2022/08/02 09:34:55;;;;;;;4.72;2.72;;;;;;;;;;5064130;28;20244;-15
2022/08/02 09:37:23;;;;;;;3.70;2.50;;;;;;;;;;5050884;28;20234;-15
2022/08/02 09:39:52;;;;;;;4.53;2.88;;;;;;;;;;5050724;28;20325;-15
2022/08/02 09:42:26;;;;;;;4.82;2.90;;;;;;;;;;5037273;28;20234;-15
2022/08/02 09:44:58;;;;;;;4.05;2.60;;;;;;;;;;5050071;28;20241;-15
2022/08/02 09:47:25;;;;;;;5.20;2.85;;;;;;;;;;5050524;28;20239;-15
2022/08/02 09:49:53;;;;;;;2.88;2.58;;;;;;;;;;5061868;28;20270;-15
2022/08/02 09:52:22;;;;;;;6.72;3.00;;;;;;;;;;5067128;28;20257;-15
2022/08/02 09:55:05;;;;;;;6.28;3.25;;;;;;;;;;5050541;28;20245;-15
2022/08/02 09:57:36;;;;;;;3.92;2.83;;;;;;;;;;5055233;28;20229;-15
2022/08/02 10:00:06;;;;;;;3.70;2.90;;;;;;;;;;5059427;28;20228;-15
2022/08/02 10:02:48;;;;;;;5.78;2.95;;;;;;;;;;5050539;28;20348;-15
2022/08/02 10:05:15;;;;;;;3.38;2.63;;;;;;;;;;5060989;28;20213;-15
2022/08/02 10:07:44;;;;;;;4.75;2.65;;;;;;;;;;5057628;28;20784;-15
2022/08/02 10:10:12;;;;;;;6.07;2.80;;;;;;;;;;5074193;28;20982;-15
2022/08/02 10:12:40;;;;;;;4.28;2.72;;;;;;;;;;5056457;28;21046;-15
2022/08/02 10:15:08;;;;;;;3.90;2.35;;;;;;;;;;5062359;28;20239;-15
2022/08/02 10:17:35;;;;;;;5.50;2.95;;;;;;;;;;5064544;28;20229;-15
2022/08/02 10:20:03;;;;;;;5.35;3.00;;;;;;;;;;5061382;28;20269;-15
2022/08/02 10:22:32;;;;;;;3.38;2.33;;;;;;;;;;5073661;28;20241;-15
2022/08/02 10:24:59;;;;;;;5.25;2.65;;;;;;;;;;5067294;28;20265;-15
2022/08/02 10:27:28;;;;;;;5.85;3.15;;;;;;;;;;5053814;28;20233;-15
2022/08/02 10:30:16;;;;;;;3.83;2.72;;;;;;;;;;5053211;28;20234;-15
2022/08/02 10:32:44;;;;;;;3.17;2.67;;;;;;;;;;5053452;28;20233;-15
2022/08/02 10:35:13;;;;;;;2.80;2.40;;;;;;;;;;5055412;28;20261;-15
2022/08/02 10:37:53;;;;;;;4.78;2.25;;;;;;;;;;5053668;28;20254;-15
2022/08/02 10:40:25;;;;;;;2.90;2.38;;;;;;;;;;5052045;28;20226;-15
2022/08/02 10:42:54;;;;;;;3.33;2.20;;;;;;;;;;5053325;28;20238;-15
2022/08/02 10:45:21;;;;;;;2.83;2.40;;;;;;;;;;5070170;28;20238;-15
2022/08/02 10:47:59;;;;;;;4.15;2.22;;;;;;;;;;5053215;28;20234;-15
2022/08/02 10:50:45;;;;;;;6.25;2.70;;;;;;;;;;5052870;28;20226;-15
2022/08/02 10:53:22;;;;;;;6.55;2.67;;;;;;;;;;5053589;28;20317;-15
2022/08/02 10:55:50;;;;;;;5.38;2.38;;;;;;;;;;5067391;28;20240;-15
2022/08/02 10:58:20;;;;;;;3.58;2.38;;;;;;;;;;5063982;28;20236;-15
2022/08/02 11:00:52;;;;;;;4.05;2.33;;;;;;;;;;5059094;28;21030;-15
2022/08/02 11:03:38;;;;;;;4.80;2.20;;;;;;;;;;5054071;28;20388;-15
2022/08/02 11:06:06;;;;;;;3.97;2.10;;;;;;;;;;5066021;28;20229;-16
2022/08/02 11:08:34;;;;;;;3.47;2.03;;;;;;;;;;5073853;28;20231;-15
2022/08/02 11:11:02;;;;;;;5.03;2.10;;;;;;;;;;5073141;28;20324;-15
2022/08/02 11:13:30;;;;;;;3.45;1.75;;;;;;;;;;5070986;28;20842;-15
2022/08/02 11:16:00;;;;;;;2.13;1.92;;;;;;;;;;5065419;28;21020;-15
2022/08/02 11:18:45;;;;;;;2.13;1.80;;;;;;;;;;5060544;28;21127;-15
2022/08/02 11:21:22;;;;;;;3.72;2.25;;;;;;;;;;5071955;28;20247;-15
2022/08/02 11:23:50;;;;;;;2.97;2.17;;;;;;;;;;5061391;28;20308;-15
2022/08/02 11:26:36;;;;;;;4.60;2.00;;;;;;;;;;5070186;28;20225;-15
2022/08/02 11:29:05;;;;;;;2.97;1.92;;;;;;;;;;5072737;28;20696;-15
2022/08/02 11:31:38;;;;;;;1.50;1.40;;;;;;;;;;5057648;28;20234;-15
2022/08/02 11:34:05;;;;;;;3.03;1.42;;;;;;;;;;5060523;28;20232;-15
2022/08/02 11:36:43;;;;;;;2.42;1.48;;;;;;;;;;5066352;28;21116;-15
2022/08/02 11:39:11;;;;;;;3.80;1.27;;;;;;;;;;5060079;28;20236;-15
2022/08/02 11:41:38;;;;;;;4.40;1.48;;;;;;;;;;5072647;28;20232;-15
2022/08/02 11:44:15;;;;;;;1.88;1.30;;;;;;;;;;5046916;28;20241;-15
2022/08/02 11:46:42;;;;;;;1.98;1.35;;;;;;;;;;5058342;28;20234;-15
2022/08/02 11:49:13;;;;;;;2.70;1.58;;;;;;;;;;5066479;28;20226;-15
2022/08/02 11:51:50;;;;;;;2.95;1.20;;;;;;;;;;5065140;28;20776;-15
2022/08/02 11:54:24;;;;;;;1.92;1.48;;;;;;;;;;5045245;28;20258;-15
2022/08/02 11:56:53;;;;;;;2.35;1.40;;;;;;;;;;5064364;28;20238;-15
2022/08/02 11:59:22;;;;;;;3.92;1.30;;;;;;;;;;5057832;28;20301;-15
2022/08/02 12:01:50;;;;;;;1.83;1.20;;;;;;;;;;5057613;28;20721;-15
2022/08/02 12:04:18;;;;;;;3.75;1.50;;;;;;;;;;5056512;28;20332;-15
2022/08/02 12:06:55;;;;;;;2.42;1.52;;;;;;;;;;5064133;28;20232;-15
2022/08/02 12:09:23;;;;;;;2.10;1.30;;;;;;;;;;5052524;28;20316;-15
2022/08/02 12:11:50;;;;;;;3.50;1.42;;;;;;;;;;5051897;28;20723;-15
2022/08/02 12:14:18;;;;;;;1.80;1.30;;;;;;;;;;5054875;28;20260;-15
2022/08/02 12:19:31;;;;;;;1.90;1.20;;;;;;;;;;5063285;28;20273;-15
2022/08/02 12:22:08;;;;;;;3.28;1.80;;;;;;;;;;5071198;28;20237;-15
2022/08/02 12:24:36;;;;;;;1.88;1.20;;;;;;;;;;5054225;28;20237;-15
2022/08/02 12:27:04;;;;;;;4.05;1.45;;;;;;;;;;5051852;28;20764;-15
2022/08/02 12:29:32;;;;;;;3.45;1.50;;;;;;;;;;5057893;28;20363;-15
2022/08/02 12:32:24;;;;;;;2.90;1.35;;;;;;;;;;5058861;28;20232;-15
2022/08/02 12:35:00;;;;;;;3.53;1.27;;;;;;;;;;5057481;28;20248;-15
2022/08/02 12:37:28;;;;;;;1.70;1.33;;;;;;;;;;5039293;28;20701;-15
2022/08/02 12:39:55;;;;;;;1.60;1.25;;;;;;;;;;5065414;28;20864;-15
2022/08/02 12:42:22;;;;;;;3.90;1.60;;;;;;;;;;5056515;28;20236;-15
2022/08/02 12:44:50;;;;;;;2.50;1.50;;;;;;;;;;5071866;28;20233;-15
2022/08/02 12:47:18;;;;;;;6.75;1.60;;;;;;;;;;5052082;28;20328;-15
2022/08/02 12:49:49;;;;;;;2.30;1.65;;;;;;;;;;5062462;28;20311;-15
2022/08/02 12:52:20;;;;;;;3.42;1.92;;;;;;;;;;5060834;28;20234;-15
2022/08/02 12:54:48;;;;;;;3.60;1.63;;;;;;;;;;5051446;28;20987;-15
2022/08/02 12:57:16;;;;;;;4.07;1.33;;;;;;;;;;5067857;28;20233;-15
2022/08/02 12:59:48;;;;;;;2.00;1.60;;;;;;;;;;5071903;28;20241;-15
2022/08/02 13:02:16;;;;;;;1.85;1.50;;;;;;;;;;5066709;28;20221;-15
2022/08/02 13:04:44;;;;;;;1.55;1.33;;;;;;;;;;5055269;28;20672;-15
2022/08/02 13:07:18;;;;;;;2.90;1.27;;;;;;;;;;5051751;28;20230;-15
2022/08/02 13:09:46;;;;;;;1.90;1.70;;;;;;;;;;5064264;28;20250;-15
2022/08/02 13:12:14;;;;;;;3.17;1.85;;;;;;;;;;5064436;28;20314;-15
2022/08/02 13:14:42;;;;;;;5.13;1.50;;;;;;;;;;5063741;28;20233;-15
2022/08/02 13:17:10;;;;;;;3.78;1.58;;;;;;;;;;5066162;28;20249;-15
2022/08/02 13:19:39;;;;;;;2.17;1.58;;;;;;;;;;5052135;28;20668;-15
2022/08/02 13:22:06;;;;;;;4.22;1.60;;;;;;;;;;5050776;28;20546;-15
2022/08/02 13:24:38;;;;;;;4.00;1.60;;;;;;;;;;5064146;28;20234;-15
2022/08/02 13:27:23;;;;;;;2.15;1.40;;;;;;;;;;5063230;28;21552;-16
2022/08/02 13:29:50;;;;;;;3.78;1.30;;;;;;;;;;5066910;28;20233;-15
2022/08/02 13:32:18;;;;;;;2.22;1.50;;;;;;;;;;5059433;28;20608;-15
2022/08/02 13:34:45;;;;;;;3.47;1.40;;;;;;;;;;5064500;28;20709;-15
2022/08/02 13:37:12;;;;;;;7.30;1.70;;;;;;;;;;5051253;28;20228;-15
2022/08/02 13:39:41;;;;;;;3.75;1.50;;;;;;;;;;5050591;28;20288;-15
2022/08/02 13:42:29;;;;;;;2.67;1.67;;;;;;;;;;5036115;28;20976;-15
2022/08/02 13:44:56;;;;;;;3.17;1.90;;;;;;;;;;5064271;28;21066;-15
2022/08/02 13:47:24;;;;;;;4.15;1.38;;;;;;;;;;5064771;28;20229;-15
2022/08/02 13:50:03;;;;;;;1.80;1.45;;;;;;;;;;5057931;28;20746;-15
2022/08/02 13:52:32;;;;;;;1.92;1.55;;;;;;;;;;5064729;28;20233;-15
2022/08/02 13:55:01;;;;;;;2.55;1.70;;;;;;;;;;5050661;28;20230;-15
2022/08/02 13:57:28;;;;;;;2.13;1.55;;;;;;;;;;5066417;28;20230;-15
2022/08/02 13:59:56;;;;;;;2.78;1.55;;;;;;;;;;5070791;28;20233;-15
2022/08/02 14:02:26;;;;;;;1.55;1.25;;;;;;;;;;5050402;28;20253;-15
2022/08/02 14:04:54;;;;;;;3.47;1.85;;;;;;;;;;5050701;28;20705;-15
2022/08/02 14:07:21;;;;;;;2.13;1.30;;;;;;;;;;5049029;28;20329;-15
2022/08/02 14:09:48;;;;;;;2.70;1.20;;;;;;;;;;5044082;28;20226;-15
2022/08/02 14:12:17;;;;;;;2.15;1.45;;;;;;;;;;5064138;28;20736;-15
2022/08/02 14:14:45;;;;;;;1.80;1.30;;;;;;;;;;5064283;28;20241;-15
2022/08/02 14:17:12;;;;;;;1.50;1.40;;;;;;;;;;5050261;28;21004;-15
2022/08/02 14:19:40;;;;;;;2.90;1.55;;;;;;;;;;5049927;28;20240;-15
2022/08/02 14:22:07;;;;;;;2.05;1.25;;;;;;;;;;5060684;28;20243;-16
2022/08/02 14:24:47;;;;;;;1.90;1.17;;;;;;;;;;5070550;28;20763;-15
2022/08/02 14:27:14;;;;;;;2.78;1.33;;;;;;;;;;5070185;28;20765;-15
2022/08/02 14:29:43;;;;;;;2.25;1.35;;;;;;;;;;5056675;28;20226;-16
2022/08/02 14:32:11;;;;;;;4.05;1.30;;;;;;;;;;5057706;28;20241;-15
2022/08/02 14:34:38;;;;;;;1.95;1.40;;;;;;;;;;5063035;28;20678;-15
2022/08/02 14:37:06;;;;;;;1.10;1.00;;;;;;;;;;5064447;28;20230;-15
2022/08/02 14:39:33;;;;;;;2.28;1.30;;;;;;;;;;5060710;28;21055;-15
2022/08/02 14:42:21;;;;;;;2.70;1.40;;;;;;;;;;5054964;28;20240;-15
2022/08/02 14:44:50;;;;;;;2.30;1.20;;;;;;;;;;5070239;28;20249;-15
2022/08/02 14:47:17;;;;;;;3.83;1.20;;;;;;;;;;5070101;28;20675;-15
2022/08/02 14:49:44;;;;;;;1.95;1.15;;;;;;;;;;5070447;28;20237;-15
2022/08/02 14:52:16;;;;;;;3.63;0.98;;;;;;;;;;5065701;28;20288;-15
2022/08/02 14:54:44;;;;;;;2.35;0.90;;;;;;;;;;5053180;28;20317;-15
2022/08/02 14:57:13;;;;;;;2.22;1.05;;;;;;;;;;5067689;28;20725;-15
2022/08/02 14:59:40;;;;;;;1.20;1.10;;;;;;;;;;5061887;28;20256;-15